Flight Track Log - Related Links

Times and Time Zones

All times are in EDT time to prevent confusion due to time zone crossing. See the AMF1987 flight status page for this flight to view local times or setup timezone preferences in your user account.

Time Position Orientation Groundspeed Altitude Reporting Facility
EDT Latitude Longitude Course Direction KTS MPH feet Rate Location/Type
Fri 08:39:10 PM 46.3072 -119.3042 288° West 221 254 4,600  Level Seattle Center
Fri 08:40:11 PM 46.3325 -119.4117 289° West 233 268 6,200 1,475 Climbing Seattle Center
Fri 08:41:12 PM 46.3531 -119.5019 288° West 237 273 7,600 1,377 Climbing Seattle Center
Fri 08:42:00 PM 46.3455 -119.5228 284° West  Level FlightAware Approximate
Fri 08:42:13 PM 46.3744 -119.5925 289° West 239 275 9,000  Level Seattle Center
Fri 08:43:00 PM 46.3713 -119.5899 286° West  Level FlightAware Approximate
Fri 08:43:14 PM 46.4033 -119.6828 295° West 247 284 10,500  Level Seattle Center
Fri 08:44:15 PM 46.4331 -119.7756 295° West 254 292 11,800 1,268 Climbing Seattle Center
Fri 08:45:17 PM 46.4631 -119.8669 296° West 254 292 13,100 1,073 Climbing Seattle Center
Fri 08:46:18 PM 46.4931 -119.9600 295° West 259 298 14,000 443 Climbing Seattle Center
Fri 08:47:19 PM 46.5261 -120.0631 295° West 297 342 14,000  Level Seattle Center
Fri 08:48:20 PM 46.5594 -120.1647 296° West 286 329 14,000  Level Seattle Center
Fri 08:49:21 PM 46.5933 -120.2656 296° West 280 322 14,000  Level Seattle Center
Fri 08:50:22 PM 46.6253 -120.3669 295° West 276 318 14,000  Level Seattle Center
Fri 08:51:23 PM 46.6650 -120.4894 295° West 278 320 14,000  Level Seattle Center
Fri 08:52:24 PM 46.6969 -120.5914 295° West 278 320 14,000  Level Seattle Center
Fri 08:53:25 PM 46.7294 -120.6933 295° West 280 322 14,000  Level Seattle Center
Fri 08:54:26 PM 46.7614 -120.7956 295° West 278 320 14,000 49 Level Seattle Center
Fri 08:55:27 PM 46.7925 -120.8994 294° West 279 321 14,100 -49 Climbing Seattle Center
Fri 08:56:28 PM 46.8306 -120.9972 300° West 278 320 13,900 -541 Descending Seattle Center
Fri 08:57:29 PM 46.8756 -121.0939 304° West 287 330 13,000 -885 Descending Seattle Center
Fri 08:58:30 PM 46.9219 -121.1897 305° West 287 330 12,100 -780 Descending Seattle Center
Fri 08:59:32 PM 46.9636 -121.2900 301° West 279 321 11,400 -683 Descending Seattle Center
Fri 09:00:33 PM 47.0025 -121.3719 305° West 248 285 10,700 -689 Descending Seattle Center
Fri 09:01:34 PM 47.0519 -121.4728 306° West 251 289 10,000 -344 Descending Seattle Center
Fri 09:02:35 PM 47.0939 -121.5597 305° West 261 300 10,000 -150 Level Seattle Center
Fri 09:02:54 PM 47.1061 -121.5875 303° West 265 305 9,800 -787 Descending Seattle Center
Fri 09:03:36 PM 47.1356 -121.6489 305° West 265 305 9,200 -689 Descending Seattle Center
Fri 09:03:55 PM 47.1469 -121.6756 302° West 265 305 9,100 -492 Descending Seattle Center
Fri 09:04:37 PM 47.1725 -121.7306 304° West 243 280 8,700 -828 Descending Seattle Center
Fri 09:05:51 PM 47.1633 -121.8494 264° West 253 291 7,500 -787 Descending Seattle Center
Fri 09:06:39 PM 47.1483 -121.9314 255° West 251 289 7,100 -455 Descending Seattle Center
Fri 09:06:57 PM 47.1500 -121.9614 275° West 244 281 7,000 -98 Descending Seattle Center
Fri 09:07:40 PM 47.1739 -122.0153 303° West 234 269 7,000 -97 Level Seattle Center
Fri 09:07:59 PM 47.1925 -122.0225 345° North 234 269 6,900 -984 Descending Seattle Center
Fri 09:08:41 PM 47.2350 -122.0553 332° Northwest 242 278 6,000 -1,200 Descending Seattle Center
Fri 09:08:59 PM 47.2519 -122.0714 327° Northwest 244 281 5,700 -885 Descending Seattle Center
Fri 09:09:42 PM 47.2908 -122.1028 331° Northwest 234 269 5,100 -885 Descending Seattle Center
Fri 09:10:00 PM 47.3058 -122.1167 328° Northwest 222 255 4,800 -689 Descending Seattle Center
Fri 09:10:43 PM 47.3381 -122.1425 331° Northwest 193 222 4,400 -590 Descending Seattle Center
Fri 09:11:01 PM 47.3508 -122.1539 329° Northwest 178 205 4,200 -689 Descending Seattle Center
Fri 09:11:44 PM 47.3833 -122.1811 330° Northwest 177 204 3,700 -689 Descending Seattle Center
Fri 09:12:02 PM 47.3961 -122.1911 332° Northwest 167 192 3,500 -1,000 Descending Seattle Center
Fri 09:12:44 PM 47.4219 -122.2139 329° Northwest 164 189 2,700 -1,082 Descending Seattle Center
Fri 09:13:03 PM 47.4331 -122.2231 331° Northwest 157 181 2,400 -885 Descending Seattle Center
Fri 09:13:45 PM 47.4586 -122.2439 331° Northwest 154 177 1,800 -787 Descending Seattle Center
Fri 09:14:04 PM 47.4675 -122.2533 324° Northwest 137 158 1,600 -885 Descending Seattle Center
Fri 09:14:46 PM 47.4892 -122.2697 333° Northwest 130 150 900 -985 Descending Seattle Center
Fri 09:15:11 PM 47.5011 -122.2806 329° Northwest 124 143 500 -787 Descending Seattle Center
Fri 09:15:47 PM 47.5194 -122.2939 334° Northwest 128 147 100 8,351 Descending Seattle Center
Fri 09:16:48 PM 47.5258 -122.3078 304° West 108 124 14,000 13,672 Climbing Seattle Center
Fri 09:18:00 PM 47.5167 -122.3000 326° Northwest  Level FlightAware Approximate

Login

Don't have an account? Register now (free) for customized features, flight alerts, and more!